createdAt,value
2023-02-11T00:00:18.923Z,98062.38
2023-02-11T00:02:47.831Z,98070.25
2023-02-11T00:05:15.617Z,98072.78
2023-02-11T00:07:43.555Z,98073.56
2023-02-11T00:10:10.017Z,98073.53
2023-02-11T00:12:37.014Z,98075.19
2023-02-11T00:15:03.980Z,98070.66
2023-02-11T00:17:30.439Z,98069.69
2023-02-11T00:19:57.119Z,98077.63
2023-02-11T00:22:23.656Z,98069.53
2023-02-11T00:24:50.248Z,98071.25
2023-02-11T00:27:16.839Z,98072.03
2023-02-11T00:29:44.622Z,98074.56
2023-02-11T00:32:11.129Z,98070.97
2023-02-11T00:34:38.183Z,98072.53
2023-02-11T00:37:05.541Z,98075.88
2023-02-11T00:39:32.702Z,98074.91
2023-02-11T00:41:59.250Z,98082.69
2023-02-11T00:44:26.954Z,98074.66
2023-02-11T00:46:53.427Z,98081.56
2023-02-11T00:49:20.038Z,98084.97
2023-02-11T00:51:48.598Z,98083.94
2023-02-11T00:54:15.194Z,98088.25
2023-02-11T00:56:41.766Z,98090.75
2023-02-11T00:59:09.158Z,98093.25
2023-02-11T01:01:35.878Z,98091.34
2023-02-11T01:04:02.392Z,98084.16
2023-02-11T01:06:28.841Z,98092.88
2023-02-11T01:08:56.574Z,98097.19
2023-02-11T01:11:23.035Z,98091.75
2023-02-11T01:13:49.741Z,98085.41
2023-02-11T01:16:16.693Z,98092.41
2023-02-11T01:18:45.076Z,98085.13
2023-02-11T01:21:11.668Z,98084.16
2023-02-11T01:23:38.299Z,98084.00
2023-02-11T01:26:04.927Z,98084.72
2023-02-11T01:28:31.738Z,98092.59
2023-02-11T01:31:00.670Z,98088.91
2023-02-11T01:33:27.283Z,98087.91
2023-02-11T01:35:53.864Z,98091.31
2023-02-11T01:38:21.878Z,98094.75
2023-02-11T01:40:52.931Z,98091.09
2023-02-11T01:43:19.807Z,98099.91
2023-02-11T01:45:52.957Z,98093.56
2023-02-11T01:48:19.538Z,98096.06
2023-02-11T01:50:48.176Z,98092.50
2023-02-11T01:53:33.263Z,98093.28
2023-02-11T01:56:18.501Z,98078.94
2023-02-11T01:58:45.658Z,98085.88
2023-02-11T02:01:13.260Z,98077.81
2023-02-11T02:03:40.186Z,98073.28
2023-02-11T02:06:14.830Z,98074.06
2023-02-11T02:08:47.310Z,98066.88
2023-02-11T02:11:13.843Z,98058.75
2023-02-11T02:13:41.584Z,98062.13
2023-02-11T02:16:10.936Z,98058.44
2023-02-11T02:18:56.213Z,98051.31
2023-02-11T02:21:30.792Z,98049.53
2023-02-11T02:24:03.567Z,98047.56
2023-02-11T02:26:47.042Z,98049.25
2023-02-11T02:29:22.407Z,98043.75
2023-02-11T02:31:49.151Z,98038.34
2023-02-11T02:34:17.212Z,98026.75
2023-02-11T02:36:44.797Z,98027.53
2023-02-11T02:39:21.104Z,98015.00
2023-02-11T02:41:48.489Z,98008.69
2023-02-11T02:44:14.955Z,98013.03
2023-02-11T02:46:41.693Z,98003.22
2023-02-11T02:49:12.570Z,98014.63
2023-02-11T02:51:58.218Z,98011.78
2023-02-11T02:54:43.861Z,98011.66
2023-02-11T02:57:27.846Z,98005.28
2023-02-11T02:59:59.775Z,98006.06
2023-02-11T03:02:31.742Z,98004.38
2023-02-11T03:05:18.626Z,98003.34
2023-02-11T03:07:49.038Z,97998.94
2023-02-11T03:10:17.640Z,98014.78
2023-02-11T03:12:44.167Z,98012.97
2023-02-11T03:15:11.421Z,98020.06
2023-02-11T03:17:38.871Z,98016.44
2023-02-11T03:20:05.549Z,98018.13
2023-02-11T03:22:36.621Z,98019.75
2023-02-11T03:25:04.352Z,98016.16
2023-02-11T03:27:44.205Z,98016.94
2023-02-11T03:30:16.232Z,98020.47
2023-02-11T03:32:45.998Z,98014.19
2023-02-11T03:35:12.399Z,98020.34
2023-02-11T03:37:58.096Z,98022.94
2023-02-11T03:40:37.037Z,98027.25
2023-02-11T03:43:07.055Z,98035.19
2023-02-11T03:45:33.516Z,98029.78
2023-02-11T03:48:00.903Z,98035.03
2023-02-11T03:50:27.420Z,98029.63
2023-02-11T03:52:53.956Z,98037.53
2023-02-11T03:55:20.549Z,98043.75
2023-02-11T03:57:47.344Z,98043.66
2023-02-11T04:00:14.055Z,98049.88
2023-02-11T04:02:40.773Z,98043.66
2023-02-11T04:05:07.855Z,98049.81
2023-02-11T04:07:34.456Z,98048.84
2023-02-11T04:10:00.896Z,98052.38
2023-02-11T04:12:27.393Z,98063.84
2023-02-11T04:14:53.863Z,98063.84
2023-02-11T04:17:20.326Z,98078.88
2023-02-11T04:19:46.892Z,98083.25
2023-02-11T04:22:13.569Z,98075.16
2023-02-11T04:24:40.218Z,98078.63
2023-02-11T04:27:07.124Z,98083.91
2023-02-11T04:29:33.634Z,98087.41
2023-02-11T04:32:00.374Z,98081.06
2023-02-11T04:34:26.997Z,98082.88
2023-02-11T04:36:53.529Z,98080.97
2023-02-11T04:39:19.947Z,98079.97
2023-02-11T04:41:46.504Z,98083.19
2023-02-11T04:44:13.436Z,98039.94
2023-02-11T04:46:39.925Z,98008.50
2023-02-11T04:49:06.436Z,98003.63
2023-02-11T04:51:33.047Z,97988.88
2023-02-11T04:53:59.489Z,97999.69
2023-02-11T04:56:26.153Z,97997.09
2023-02-11T04:58:52.583Z,97999.78
2023-02-11T05:01:19.151Z,97998.78
2023-02-11T05:03:45.715Z,97995.31
2023-02-11T05:06:12.519Z,97991.69
2023-02-11T05:08:39.166Z,97981.03
2023-02-11T05:11:05.923Z,97988.09
2023-02-11T05:13:32.610Z,97988.94
2023-02-11T05:15:59.176Z,97993.38
2023-02-11T05:18:25.676Z,97994.22
2023-02-11T05:20:52.402Z,97995.06
2023-02-11T05:23:18.845Z,97988.88
2023-02-11T05:25:45.779Z,97993.38
2023-02-11T05:28:14.495Z,97988.88
2023-02-11T05:30:41.251Z,97987.94
2023-02-11T05:33:08.046Z,97980.81
2023-02-11T05:35:34.805Z,97987.00
2023-02-11T05:38:01.391Z,97988.72
2023-02-11T05:40:28.726Z,97992.34
2023-02-11T05:42:55.256Z,98001.19
2023-02-11T05:45:21.968Z,97987.84
2023-02-11T05:47:48.413Z,97987.00
2023-02-11T05:50:15.282Z,97984.41
2023-02-11T05:52:41.880Z,97986.28
2023-02-11T05:55:09.788Z,97989.97
2023-02-11T05:57:36.532Z,97986.53
2023-02-11T06:00:04.224Z,97987.50
2023-02-11T06:02:39.357Z,97997.38
2023-02-11T06:05:06.070Z,97984.22
2023-02-11T06:07:32.513Z,97979.88
2023-02-11T06:09:59.596Z,97987.09
2023-02-11T06:12:26.676Z,97974.78
2023-02-11T06:14:53.328Z,97959.81
2023-02-11T06:17:19.910Z,97952.78
2023-02-11T06:19:46.374Z,97952.00
2023-02-11T06:22:12.961Z,97950.38
2023-02-11T06:24:58.941Z,97951.38
2023-02-11T06:27:25.915Z,97960.31
2023-02-11T06:29:53.101Z,97964.00
2023-02-11T06:32:42.261Z,97957.88
2023-02-11T06:35:12.094Z,97965.09
2023-02-11T06:37:39.630Z,97964.31
2023-02-11T06:40:06.302Z,97983.91
2023-02-11T06:42:32.784Z,97977.78
2023-02-11T06:44:59.296Z,97984.16
2023-02-11T06:47:25.976Z,97983.28
2023-02-11T06:49:52.643Z,97981.63
2023-02-11T06:52:19.089Z,97974.50
2023-02-11T06:54:45.590Z,97962.16
2023-02-11T06:57:12.611Z,97952.44
2023-02-11T06:59:39.613Z,97962.22
2023-02-11T07:02:06.176Z,97965.84
2023-02-11T07:04:32.696Z,97951.66
2023-02-11T07:06:59.328Z,97942.88
2023-02-11T07:09:25.821Z,97942.00
2023-02-11T07:11:52.503Z,97941.13
2023-02-11T07:14:19.514Z,97941.22
2023-02-11T07:16:46.043Z,97943.94
2023-02-11T07:19:12.933Z,97959.94
2023-02-11T07:21:39.370Z,97965.28
2023-02-11T07:24:08.896Z,97976.03
2023-02-11T07:26:37.268Z,97977.03
2023-02-11T07:29:03.869Z,97980.56
2023-02-11T07:31:30.839Z,97977.97
2023-02-11T07:33:59.135Z,97960.25
2023-02-11T07:36:25.936Z,97947.00
2023-02-11T07:38:52.407Z,97943.47
2023-02-11T07:41:20.731Z,97936.41
2023-02-11T07:43:47.260Z,97945.34
2023-02-11T07:46:23.923Z,97934.75
2023-02-11T07:48:50.524Z,97947.22
2023-02-11T07:51:17.733Z,97950.84
2023-02-11T07:53:44.581Z,97950.91
2023-02-11T07:56:12.009Z,97949.09
2023-02-11T07:58:38.498Z,97950.97
2023-02-11T08:01:05.963Z,97960.75
2023-02-11T08:03:33.054Z,97968.72
2023-02-11T08:06:02.896Z,97954.63
2023-02-11T08:08:29.371Z,97938.69
2023-02-11T08:10:55.784Z,97940.44
2023-02-11T08:13:22.273Z,97940.50
2023-02-11T08:15:48.994Z,97947.63
2023-02-11T08:18:15.986Z,97943.22
2023-02-11T08:20:43.845Z,97939.72
2023-02-11T08:23:10.447Z,97945.97
2023-02-11T08:25:36.909Z,97956.63
2023-02-11T08:28:03.389Z,97939.78
2023-02-11T08:30:31.309Z,97937.19
2023-02-11T08:32:59.008Z,97931.84
2023-02-11T08:35:26.090Z,97930.28
2023-02-11T08:37:53.066Z,97948.88
2023-02-11T08:40:19.809Z,97953.34
2023-02-11T08:42:46.331Z,97957.84
2023-02-11T08:45:13.533Z,97961.47
2023-02-11T08:47:40.139Z,97957.16
2023-02-11T08:50:06.774Z,97958.94
2023-02-11T08:52:33.285Z,97962.53
2023-02-11T08:54:59.814Z,97960.81
2023-02-11T08:57:26.335Z,97962.53
2023-02-11T08:59:52.789Z,97966.06
2023-02-11T09:02:19.475Z,97957.28
2023-02-11T09:04:46.010Z,97948.50
2023-02-11T09:07:13.154Z,97935.41
2023-02-11T09:09:39.836Z,97939.94
2023-02-11T09:12:06.313Z,97949.00
2023-02-11T09:14:33.265Z,97960.66
2023-02-11T09:17:00.893Z,97964.28
2023-02-11T09:19:27.495Z,97963.47
2023-02-11T09:21:54.264Z,97956.41
2023-02-11T09:24:21.407Z,97954.69
2023-02-11T09:26:47.941Z,97945.81
2023-02-11T09:29:15.101Z,97953.03
2023-02-11T09:31:43.603Z,97952.16
2023-02-11T09:34:10.992Z,97942.44
2023-02-11T09:36:38.670Z,97937.09
2023-02-11T09:39:05.874Z,97928.19
2023-02-11T09:41:35.215Z,97929.13
2023-02-11T09:44:02.935Z,97919.34
2023-02-11T09:46:31.642Z,97929.22
2023-02-11T09:48:58.173Z,97941.50
2023-02-11T09:51:30.392Z,97934.44
2023-02-11T09:54:00.322Z,97938.91
2023-02-11T09:56:27.621Z,97924.00
2023-02-11T09:58:54.210Z,97939.94
2023-02-11T10:01:23.560Z,97948.78
2023-02-11T10:03:52.853Z,97931.09
2023-02-11T10:06:39.700Z,97941.72
2023-02-11T10:09:25.093Z,97942.59
2023-02-11T10:12:04.480Z,97947.84
2023-02-11T10:14:50.304Z,97957.50
2023-02-11T10:17:31.826Z,97964.56
2023-02-11T10:20:07.635Z,97964.47
2023-02-11T10:22:36.172Z,97960.72
2023-02-11T10:25:08.435Z,97974.84
2023-02-11T10:27:35.443Z,97968.53
2023-02-11T10:30:11.548Z,97967.50
2023-02-11T10:32:43.256Z,97955.84
2023-02-11T10:35:16.068Z,97967.28
2023-02-11T10:37:44.545Z,97963.69
2023-02-11T10:40:17.743Z,97955.56
2023-02-11T10:42:55.757Z,97956.25
2023-02-11T10:45:22.592Z,97957.94
2023-02-11T10:47:49.081Z,97961.34
2023-02-11T10:50:23.038Z,97960.25
2023-02-11T10:52:49.772Z,97960.94
2023-02-11T10:55:17.462Z,97944.81
2023-02-11T10:57:50.662Z,97956.22
2023-02-11T11:00:23.095Z,97962.28
2023-02-11T11:02:53.275Z,97967.38
2023-02-11T11:05:20.454Z,97964.47
2023-02-11T11:07:58.611Z,97958.09
2023-02-11T11:10:26.705Z,97950.88
2023-02-11T11:12:55.647Z,97946.41
2023-02-11T11:15:23.459Z,97958.63
2023-02-11T11:17:50.411Z,97960.22
2023-02-11T11:20:30.382Z,97960.88
2023-02-11T11:23:11.106Z,97957.03
2023-02-11T11:25:38.263Z,97969.28
2023-02-11T11:28:04.805Z,97967.31
2023-02-11T11:30:33.403Z,97974.22
2023-02-11T11:32:59.952Z,97977.59
2023-02-11T11:35:30.376Z,97972.09
2023-02-11T11:38:00.568Z,97976.34
2023-02-11T11:40:30.064Z,97969.91
2023-02-11T11:43:04.039Z,97964.44
2023-02-11T11:45:30.569Z,97965.22
2023-02-11T11:48:05.013Z,97964.22
2023-02-11T11:50:40.322Z,97959.59
2023-02-11T11:53:22.186Z,97954.13
2023-02-11T11:55:54.244Z,97950.41
2023-02-11T11:58:21.369Z,97948.47
2023-02-11T12:00:50.921Z,97941.22
2023-02-11T12:03:17.599Z,97941.06
2023-02-11T12:05:46.773Z,97953.41
2023-02-11T12:08:19.026Z,97949.63
2023-02-11T12:10:45.529Z,97949.56
2023-02-11T12:13:12.177Z,97949.38
2023-02-11T12:15:39.226Z,97945.66
2023-02-11T12:18:16.348Z,97939.31
2023-02-11T12:20:48.107Z,97948.03
2023-02-11T12:23:17.786Z,97955.81
2023-02-11T12:25:56.184Z,97957.38
2023-02-11T12:28:26.170Z,97954.44
2023-02-11T12:30:58.630Z,97941.78
2023-02-11T12:33:28.111Z,97939.91
2023-02-11T12:35:56.747Z,97936.22
2023-02-11T12:38:36.400Z,97923.66
2023-02-11T12:41:07.092Z,97923.47
2023-02-11T12:43:37.561Z,97929.56
2023-02-11T12:46:10.849Z,97921.50
2023-02-11T12:48:56.580Z,97908.97
2023-02-11T12:51:41.573Z,97909.88
2023-02-11T12:54:08.042Z,97899.25
2023-02-11T12:56:38.860Z,97897.53
2023-02-11T12:59:05.522Z,97888.56
2023-02-11T13:01:39.836Z,97884.16
2023-02-11T13:04:09.212Z,97878.03
2023-02-11T13:06:37.272Z,97878.13
2023-02-11T13:09:04.740Z,97868.47
2023-02-11T13:11:41.264Z,97857.88
2023-02-11T13:14:09.800Z,97870.44
2023-02-11T13:16:37.024Z,97853.66
2023-02-11T13:19:12.697Z,97848.31
2023-02-11T13:21:45.073Z,97852.03
2023-02-11T13:24:23.512Z,97855.63
2023-02-11T13:27:05.712Z,97858.28
2023-02-11T13:29:32.146Z,97854.78
2023-02-11T13:32:11.813Z,97864.59
2023-02-11T13:34:41.063Z,97863.63
2023-02-11T13:37:26.667Z,97862.84
2023-02-11T13:39:58.023Z,97862.97
2023-02-11T13:42:24.491Z,97855.97
2023-02-11T13:44:51.057Z,97815.97
2023-02-11T13:47:30.429Z,97853.41
2023-02-11T13:49:56.976Z,97861.31
2023-02-11T13:52:23.585Z,97858.56
2023-02-11T13:54:51.101Z,97863.81
2023-02-11T13:57:20.546Z,97853.22
2023-02-11T13:59:50.752Z,97848.22
2023-02-11T14:02:36.647Z,97842.34
2023-02-11T14:05:23.157Z,97850.59
2023-02-11T14:08:39.443Z,97848.09
2023-02-11T14:11:12.732Z,97838.00
2023-02-11T14:13:49.244Z,97830.31
2023-02-11T14:16:22.547Z,97835.81
2023-02-11T14:18:54.901Z,97829.75
2023-02-11T14:21:24.474Z,97831.88
2023-02-11T14:23:53.318Z,97832.28
2023-02-11T14:26:20.887Z,97828.91
2023-02-11T14:29:05.756Z,97824.53
2023-02-11T14:31:46.751Z,97832.59
2023-02-11T14:34:16.241Z,97838.88
2023-02-11T14:36:58.153Z,97847.50
2023-02-11T14:39:30.660Z,97855.19
2023-02-11T14:41:57.230Z,97853.09
2023-02-11T14:44:25.829Z,97855.53
2023-02-11T14:46:53.396Z,97858.81
2023-02-11T14:49:38.669Z,97868.31
2023-02-11T14:52:24.016Z,97871.66
2023-02-11T14:54:50.487Z,97871.50
2023-02-11T14:57:17.977Z,97872.13
2023-02-11T15:00:02.621Z,97871.09
2023-02-11T15:02:31.433Z,97863.00
2023-02-11T15:05:14.554Z,97861.13
2023-02-11T15:07:45.557Z,97856.56
2023-02-11T15:10:18.892Z,97863.59
2023-02-11T15:12:48.775Z,97867.16
2023-02-11T15:15:15.439Z,97868.88
2023-02-11T15:17:42.557Z,97860.84
2023-02-11T15:20:13.395Z,97866.13
2023-02-11T15:22:39.993Z,97855.44
2023-02-11T15:25:06.412Z,97866.97
2023-02-11T15:27:42.569Z,97865.16
2023-02-11T15:30:18.082Z,97874.91
2023-02-11T15:32:45.152Z,97881.97
2023-02-11T15:35:13.634Z,97872.16
2023-02-11T15:37:41.519Z,97867.69
2023-02-11T15:40:12.809Z,97873.81
2023-02-11T15:42:52.166Z,97869.41
2023-02-11T15:45:28.926Z,97882.78
2023-02-11T15:47:57.048Z,97881.81
2023-02-11T15:50:24.692Z,97880.00
2023-02-11T15:52:51.223Z,97882.66
2023-02-11T15:55:17.930Z,97873.88
2023-02-11T15:57:45.776Z,97873.88
2023-02-11T16:00:16.555Z,97874.06
2023-02-11T16:02:45.161Z,97871.53
2023-02-11T16:05:44.906Z,97875.00
2023-02-11T16:08:20.539Z,97875.78
2023-02-11T16:10:54.446Z,97877.59
2023-02-11T16:13:20.980Z,97884.75
2023-02-11T16:15:48.871Z,97896.28
2023-02-11T16:18:36.806Z,97895.31
2023-02-11T16:21:04.588Z,97902.41
2023-02-11T16:23:38.393Z,97902.47
2023-02-11T16:26:10.690Z,97894.00
2023-02-11T16:28:37.512Z,97895.53
2023-02-11T16:31:04.435Z,97890.66
2023-02-11T16:33:31.263Z,97884.94
2023-02-11T16:35:57.786Z,97896.88
2023-02-11T16:38:24.654Z,97898.03
2023-02-11T16:40:51.479Z,97908.94
2023-02-11T16:43:19.161Z,97912.69
2023-02-11T16:45:47.248Z,97916.47
2023-02-11T16:48:15.664Z,97916.72
2023-02-11T16:50:43.854Z,97919.59
2023-02-11T16:53:11.607Z,97925.09
2023-02-11T16:55:38.834Z,97930.56
2023-02-11T16:58:06.427Z,97929.00
2023-02-11T17:00:34.296Z,97937.25
2023-02-11T17:03:00.781Z,97941.78
2023-02-11T17:05:27.432Z,97945.44
2023-02-11T17:07:54.397Z,97941.22
2023-02-11T17:10:22.229Z,97942.22
2023-02-11T17:12:50.294Z,97951.09
2023-02-11T17:15:16.745Z,97963.56
2023-02-11T17:17:43.475Z,97965.38
2023-02-11T17:20:11.493Z,97968.03
2023-02-11T17:22:38.029Z,97968.09
2023-02-11T17:25:04.590Z,97964.72
2023-02-11T17:27:31.066Z,97968.41
2023-02-11T17:29:57.568Z,97976.53
2023-02-11T17:32:24.237Z,97971.38
2023-02-11T17:34:52.327Z,97967.94
2023-02-11T17:37:18.851Z,97975.94
2023-02-11T17:39:45.798Z,97970.69
2023-02-11T17:42:14.533Z,97980.53
2023-02-11T17:44:40.977Z,97984.22
2023-02-11T17:47:07.715Z,97979.03
2023-02-11T17:49:34.374Z,97984.44
2023-02-11T17:52:00.887Z,97988.03
2023-02-11T17:54:27.325Z,98001.31
2023-02-11T17:56:57.809Z,97983.69
2023-02-11T17:59:25.900Z,97988.34
2023-02-11T18:01:52.336Z,97987.59
2023-02-11T18:04:19.173Z,97989.53
2023-02-11T18:06:45.966Z,97986.16
2023-02-11T18:09:12.515Z,97982.75
2023-02-11T18:11:39.610Z,97983.78
2023-02-11T18:14:07.800Z,97975.84
2023-02-11T18:16:36.418Z,97969.78
2023-02-11T18:19:03.111Z,97976.94
2023-02-11T18:21:29.668Z,97970.81
2023-02-11T18:23:57.026Z,97973.59
2023-02-11T18:26:28.038Z,97968.44
2023-02-11T18:28:57.480Z,97976.47
2023-02-11T18:31:24.633Z,97972.16
2023-02-11T18:33:53.013Z,97971.38
2023-02-11T18:36:20.978Z,97980.28
2023-02-11T18:38:47.462Z,97965.31
2023-02-11T18:41:14.077Z,97971.50
2023-02-11T18:43:40.613Z,97976.88
2023-02-11T18:46:08.491Z,97976.03
2023-02-11T18:48:35.347Z,97978.75
2023-02-11T18:51:02.067Z,97980.50
2023-02-11T18:53:28.555Z,97985.94
2023-02-11T18:55:55.440Z,97980.69
2023-02-11T18:58:23.168Z,97977.22
2023-02-11T19:00:49.650Z,97966.69
2023-02-11T19:03:16.567Z,97972.91
2023-02-11T19:05:47.449Z,97972.06
2023-02-11T19:08:14.040Z,97972.97
2023-02-11T19:10:44.714Z,97976.53
2023-02-11T19:13:12.822Z,97988.91
2023-02-11T19:15:43.103Z,97995.16
2023-02-11T19:18:09.854Z,97985.38
2023-02-11T19:20:38.445Z,97990.69
2023-02-11T19:23:04.894Z,97992.50
2023-02-11T19:25:31.394Z,97994.28
2023-02-11T19:27:58.113Z,97995.16
2023-02-11T19:30:24.971Z,97992.56
2023-02-11T19:32:52.584Z,97996.09
2023-02-11T19:35:19.498Z,97990.78
2023-02-11T19:37:45.998Z,97995.22
2023-02-11T19:40:12.626Z,97997.91
2023-02-11T19:42:39.103Z,97998.78
2023-02-11T19:45:07.336Z,97997.06
2023-02-11T19:47:34.147Z,97992.66
2023-02-11T19:50:00.628Z,97997.97
2023-02-11T19:52:27.101Z,97992.72
2023-02-11T19:54:53.536Z,97995.38
2023-02-11T19:57:20.412Z,97991.91
2023-02-11T19:59:46.850Z,97986.59
2023-02-11T20:02:13.353Z,97994.59
2023-02-11T20:04:40.524Z,97998.13
2023-02-11T20:07:07.043Z,98001.72
2023-02-11T20:09:33.490Z,98000.84
2023-02-11T20:12:00.617Z,97998.19
2023-02-11T20:14:28.224Z,97999.13
2023-02-11T20:16:54.774Z,97999.16
2023-02-11T20:19:21.921Z,98008.91
2023-02-11T20:21:49.194Z,98007.16
2023-02-11T20:24:16.182Z,98008.09
2023-02-11T20:26:42.809Z,98010.75
2023-02-11T20:29:10.616Z,98014.34
2023-02-11T20:31:37.186Z,98019.66
2023-02-11T20:34:03.954Z,98017.91
2023-02-11T20:36:32.284Z,98019.66
2023-02-11T20:38:59.430Z,98027.66
2023-02-11T20:41:27.985Z,98025.00
2023-02-11T20:43:55.106Z,98027.66
2023-02-11T20:46:23.211Z,98025.94
2023-02-11T20:48:49.914Z,98029.53
2023-02-11T20:51:20.643Z,98015.34
2023-02-11T20:53:51.000Z,98018.00
2023-02-11T20:56:18.678Z,98023.41
2023-02-11T20:58:45.312Z,98026.94
2023-02-11T21:01:14.076Z,98024.28
2023-02-11T21:03:43.726Z,98026.06
2023-02-11T21:06:13.138Z,98026.06
2023-02-11T21:08:39.702Z,98027.88
2023-02-11T21:11:08.820Z,98019.03
2023-02-11T21:13:35.900Z,98018.22
2023-02-11T21:16:02.503Z,98021.75
2023-02-11T21:18:29.868Z,98025.25
2023-02-11T21:20:57.171Z,98027.13
2023-02-11T21:23:23.811Z,98026.31
2023-02-11T21:25:50.604Z,98022.00
2023-02-11T21:28:17.138Z,98020.25
2023-02-11T21:30:44.468Z,98022.13
2023-02-11T21:33:10.936Z,98025.75
2023-02-11T21:35:37.903Z,98024.78
2023-02-11T21:38:04.516Z,98026.59
2023-02-11T21:40:32.230Z,98029.25
2023-02-11T21:42:58.952Z,98023.94
2023-02-11T21:45:25.495Z,98017.81
2023-02-11T21:47:53.182Z,98014.28
2023-02-11T21:50:20.144Z,98007.22
2023-02-11T21:52:46.574Z,98014.34
2023-02-11T21:55:13.170Z,98009.94
2023-02-11T21:57:39.612Z,98010.91
2023-02-11T22:00:08.706Z,98004.72
2023-02-11T22:02:37.482Z,98017.13
2023-02-11T22:05:04.335Z,98012.69
2023-02-11T22:07:30.820Z,98021.59
2023-02-11T22:09:59.264Z,98011.91
2023-02-11T22:12:25.716Z,98017.22
2023-02-11T22:14:52.170Z,98016.34
2023-02-11T22:17:18.656Z,98019.09
2023-02-11T22:19:45.315Z,98013.75
2023-02-11T22:22:13.440Z,98004.03
2023-02-11T22:24:41.602Z,98017.34
2023-02-11T22:27:08.048Z,98016.47
2023-02-11T22:29:34.551Z,98021.00
2023-02-11T22:32:01.254Z,98031.66
2023-02-11T22:34:27.871Z,98029.03
2023-02-11T22:36:54.541Z,98023.78
2023-02-11T22:39:21.045Z,98018.50
2023-02-11T22:41:47.700Z,98017.66
2023-02-11T22:44:15.032Z,98027.50
2023-02-11T22:46:41.479Z,98028.34
2023-02-11T22:49:16.115Z,98030.16
2023-02-11T22:51:42.859Z,98032.88
2023-02-11T22:54:10.591Z,98031.16
2023-02-11T22:56:37.147Z,98025.91
2023-02-11T22:59:04.786Z,98027.69
2023-02-11T23:01:31.416Z,98033.94
2023-02-11T23:03:59.000Z,98034.78
2023-02-11T23:06:25.473Z,98028.66
2023-02-11T23:08:51.895Z,98033.06
2023-02-11T23:11:19.210Z,98036.75
2023-02-11T23:13:46.426Z,98039.41
2023-02-11T23:16:14.107Z,98036.78
2023-02-11T23:18:41.347Z,98029.69
2023-02-11T23:21:11.362Z,98027.00
2023-02-11T23:23:39.066Z,97996.75
2023-02-11T23:26:05.525Z,98034.19
2023-02-11T23:28:35.490Z,98033.34
2023-02-11T23:31:11.853Z,98026.28
2023-02-11T23:33:38.414Z,98037.75
2023-02-11T23:36:05.919Z,98036.91
2023-02-11T23:38:33.165Z,98037.84
2023-02-11T23:41:00.543Z,98051.06
2023-02-11T23:43:27.168Z,98054.66
2023-02-11T23:45:54.064Z,98065.31
2023-02-11T23:48:23.266Z,98059.13
2023-02-11T23:50:53.648Z,98047.59
2023-02-11T23:53:24.453Z,98047.59
2023-02-11T23:55:58.573Z,98039.63
2023-02-11T23:58:25.164Z,98044.94
